Time;durP1;ratioP1;P1;durP2;ratioP2;P2;SDS_P1;SDS_P2;PMS_P1;PMS_P2;Temp;Humidity;BMP_temperature;BMP_pressure;BME280_temperature;BME280_humidity;BME280_pressure;Samples;Min_cycle;Max_cycle;Signal;HPM_P1;HPM_P2
2022/10/31 00:00:15;;;;;;;;;;;13.50;99.90;;;;;;5094712;28;19928;-70
2022/10/31 00:02:40;;;;;;;;;;;13.60;99.90;;;;;;5059663;28;19976;-71
2022/10/31 00:05:06;;;;;;;;;;;13.70;99.90;;;;;;5093786;28;19920;-70
2022/10/31 00:07:31;;;;;;;;;;;13.50;99.90;;;;;;5056487;28;20041;-72
2022/10/31 00:09:57;;;;;;;;;;;13.80;99.90;;;;;;5057654;28;19924;-72
2022/10/31 00:12:22;;;;;;;;;;;13.50;99.90;;;;;;5057208;28;20513;-72
2022/10/31 00:14:48;;;;;;;;;;;13.70;99.90;;;;;;5037784;28;19927;-73
2022/10/31 00:17:13;;;;;;;;;;;13.50;99.90;;;;;;5039009;28;19921;-71
2022/10/31 00:19:39;;;;;;;;;;;13.40;99.90;;;;;;5074337;28;19924;-73
2022/10/31 00:22:04;;;;;;;;;;;13.40;99.90;;;;;;5056445;28;19921;-72
2022/10/31 00:24:31;;;;;;;;;;;;;;;;;;5055577;28;19981;-72
2022/10/31 00:26:57;;;;;;;;;;;;;;;;;;5056161;28;19928;-72
2022/10/31 00:29:23;;;;;;;;;;;;;;;;;;5084677;28;20393;-72
2022/10/31 00:31:49;;;;;;;;;;;;;;;;;;5093668;28;19928;-72
2022/10/31 00:34:15;;;;;;;;;;;;;;;;;;5075579;28;19989;-73
2022/10/31 00:36:40;;;;;;;;;;;;;;;;;;5075998;28;20510;-70
2022/10/31 00:39:06;;;;;;;;;;;13.50;99.90;;;;;;5075697;28;19920;-71
2022/10/31 00:41:31;;;;;;;;;;;13.30;99.90;;;;;;5075742;28;19943;-72
2022/10/31 00:43:57;;;;;;;;;;;13.00;99.90;;;;;;5074975;28;20007;-71
2022/10/31 00:46:22;;;;;;;;;;;13.30;99.90;;;;;;5074830;28;20440;-72
2022/10/31 00:48:48;;;;;;;;;;;13.10;99.90;;;;;;5055806;28;19927;-71
2022/10/31 00:51:13;;;;;;;;;;;13.20;99.90;;;;;;5055303;28;19924;-72
2022/10/31 00:53:39;;;;;;;;;;;13.80;99.90;;;;;;5039137;28;19921;-72
2022/10/31 00:56:05;;;;;;;;;;;13.00;99.90;;;;;;5075056;28;20397;-74
2022/10/31 00:58:30;;;;;;;;;;;13.10;99.90;;;;;;5081494;28;19921;-73
2022/10/31 01:00:56;;;;;;;;;;;13.30;99.90;;;;;;5067588;28;19920;-70
2022/10/31 01:03:25;;;;;;;;;;;13.20;99.90;;;;;;5059511;28;19931;-72
2022/10/31 01:05:58;;;;;;;;;;;12.90;99.90;;;;;;5054654;28;20121;-72
2022/10/31 01:08:24;;;;;;;;;;;13.10;99.90;;;;;;5073877;28;19927;-72
2022/10/31 01:11:02;;;;;;;;;;;13.00;99.90;;;;;;5079303;28;20294;-71
2022/10/31 01:13:27;;;;;;;;;;;13.00;99.90;;;;;;5066548;28;19920;-72
2022/10/31 01:15:53;;;;;;;;;;;13.00;99.90;;;;;;5071183;28;20651;-72
2022/10/31 01:18:19;;;;;;;;;;;13.20;99.90;;;;;;5074188;28;19925;-72
2022/10/31 01:20:44;;;;;;;;;;;13.00;99.90;;;;;;5055023;28;19972;-72
2022/10/31 01:23:10;;;;;;;;;;;12.90;99.90;;;;;;5056106;28;20271;-71
2022/10/31 01:25:37;;;;;;;;;;;12.90;99.90;;;;;;5081394;28;20409;-72
2022/10/31 01:28:02;;;;;;;;;;;13.20;99.90;;;;;;5071422;28;20421;-72
2022/10/31 01:30:28;;;;;;;;;;;12.90;99.90;;;;;;5071588;28;19928;-72
2022/10/31 01:32:53;;;;;;;;;;;13.10;99.90;;;;;;5071671;28;19974;-72
2022/10/31 01:35:19;;;;;;;;;;;12.90;99.90;;;;;;5061057;28;19921;-72
2022/10/31 01:37:44;;;;;;;;;;;12.90;99.90;;;;;;5072085;28;19920;-72
2022/10/31 01:40:10;;;;;;;;;;;12.90;99.90;;;;;;5089160;28;20015;-72
2022/10/31 01:42:35;;;;;;;;;;;13.00;99.90;;;;;;5074757;28;19920;-72
2022/10/31 01:45:01;;;;;;;;;;;12.90;99.90;;;;;;5068450;28;19966;-72
2022/10/31 01:47:31;;;;;;;;;;;12.80;99.90;;;;;;5062709;28;20338;-72
2022/10/31 01:49:59;;;;;;;;;;;12.90;99.90;;;;;;5072523;28;19920;-72
2022/10/31 01:52:32;;;;;;;;;;;12.80;99.90;;;;;;5071632;28;19977;-72
2022/10/31 01:55:03;;;;;;;;;;;12.60;99.90;;;;;;5091908;28;19920;-72
2022/10/31 01:57:31;;;;;;;;;;;12.80;99.90;;;;;;5074591;28;19985;-72
2022/10/31 01:59:58;;;;;;;;;;;12.80;99.90;;;;;;5074298;28;19919;-71
2022/10/31 02:02:24;;;;;;;;;;;13.80;99.90;;;;;;5053677;28;19928;-72
2022/10/31 02:04:51;;;;;;;;;;;12.70;99.90;;;;;;5070285;28;19921;-72
2022/10/31 02:07:20;;;;;;;;;;;12.60;99.90;;;;;;5067138;28;19928;-71
2022/10/31 02:09:47;;;;;;;;;;;12.90;99.90;;;;;;5054274;28;19927;-72
2022/10/31 02:12:13;;;;;;;;;;;12.60;99.90;;;;;;5037480;28;20011;-72
2022/10/31 02:14:38;;;;;;;;;;;12.80;99.90;;;;;;5052307;28;20058;-71
2022/10/31 02:17:04;;;;;;;;;;;12.60;99.90;;;;;;5054464;28;19920;-72
2022/10/31 02:19:47;;;;;;;;;;;13.60;99.90;;;;;;5054384;28;19927;-72
2022/10/31 02:22:20;;;;;;;;;;;12.60;99.90;;;;;;5070156;28;20009;-71
2022/10/31 02:24:48;;;;;;;;;;;13.90;99.90;;;;;;5091742;28;19927;-72
2022/10/31 02:27:13;;;;;;;;;;;12.80;99.90;;;;;;5092247;28;19920;-71
2022/10/31 02:29:42;;;;;;;;;;;13.60;99.90;;;;;;5065828;28;20016;-72
2022/10/31 02:32:07;;;;;;;;;;;12.60;99.90;;;;;;5077765;28;19972;-70
2022/10/31 02:34:39;;;;;;;;;;;12.50;99.90;;;;;;5090899;28;20016;-72
2022/10/31 02:37:04;;;;;;;;;;;12.40;99.90;;;;;;5073936;28;19927;-72
2022/10/31 02:39:45;;;;;;;;;;;12.50;99.90;;;;;;5073973;28;19920;-72
2022/10/31 02:42:16;;;;;;;;;;;12.60;99.90;;;;;;5074179;28;20374;-72
2022/10/31 02:44:45;;;;;;;;;;;12.50;99.90;;;;;;5091297;28;20115;-72
2022/10/31 02:47:15;;;;;;;;;;;12.30;99.90;;;;;;5065538;28;19934;-71
2022/10/31 02:49:43;;;;;;;;;;;12.80;99.90;;;;;;5055120;28;19966;-71
2022/10/31 02:52:20;;;;;;;;;;;12.40;99.90;;;;;;5057636;28;20300;-72
2022/10/31 02:54:47;;;;;;;;;;;12.40;99.90;;;;;;5057009;28;19920;-71
2022/10/31 02:57:12;;;;;;;;;;;12.40;99.90;;;;;;5075406;28;20378;-71
2022/10/31 02:59:40;;;;;;;;;;;13.40;99.90;;;;;;5057433;28;19921;-72
2022/10/31 03:02:24;;;;;;;;;;;12.40;99.90;;;;;;5075705;28;19921;-72
2022/10/31 03:04:55;;;;;;;;;;;12.50;99.90;;;;;;5076437;28;19955;-72
2022/10/31 03:07:21;;;;;;;;;;;12.30;99.90;;;;;;5077235;28;19920;-71
2022/10/31 03:09:47;;;;;;;;;;;;;;;;;;5077422;28;20042;-72
2022/10/31 03:12:13;;;;;;;;;;;;;;;;;;5077273;28;19967;-71
2022/10/31 03:14:39;;;;;;;;;;;;;;;;;;5075040;28;20292;-72
2022/10/31 03:17:05;;;;;;;;;;;;;;;;;;5077237;28;19920;-71
2022/10/31 03:19:32;;;;;;;;;;;;;;;;;;5091497;28;19921;-71
2022/10/31 03:21:58;;;;;;;;;;;;;;;;;;5075089;28;20382;-71
2022/10/31 03:24:24;;;;;;;;;;;;;;;;;;5074434;28;20045;-71
2022/10/31 03:26:52;;;;;;;;;;;;;;;;;;5057365;28;19921;-71
2022/10/31 03:29:18;;;;;;;;;;;;;;;;;;5057265;28;20382;-71
2022/10/31 03:31:44;;;;;;;;;;;;;;;;;;5056927;28;20044;-72
2022/10/31 03:34:12;;;;;;;;;;;12.30;99.90;;;;;;5056481;28;19967;-72
2022/10/31 03:36:38;;;;;;;;;;;12.10;99.90;;;;;;5057684;28;20390;-71
2022/10/31 03:39:05;;;;;;;;;;;11.90;99.90;;;;;;5056746;28;19921;-72
2022/10/31 03:41:32;;;;;;;;;;;12.00;99.90;;;;;;5074988;28;20305;-72
2022/10/31 03:44:00;;;;;;;;;;;11.80;99.90;;;;;;5073944;28;20406;-71
2022/10/31 03:46:26;;;;;;;;;;;12.10;99.90;;;;;;5056751;28;19920;-72
2022/10/31 03:48:52;;;;;;;;;;;11.90;99.90;;;;;;5056692;28;19982;-72
2022/10/31 03:51:26;;;;;;;;;;;11.90;99.90;;;;;;5064102;28;20041;-71
2022/10/31 03:53:57;;;;;;;;;;;12.00;99.90;;;;;;5081353;28;20316;-71
2022/10/31 03:56:31;;;;;;;;;;;11.70;99.90;;;;;;5073249;28;19955;-72
2022/10/31 03:59:15;;;;;;;;;;;11.90;99.90;;;;;;5073211;28;19960;-71
2022/10/31 04:01:43;;;;;;;;;;;11.90;99.90;;;;;;5073864;28;19932;-71
2022/10/31 04:04:09;;;;;;;;;;;11.80;99.90;;;;;;5058851;28;19999;-71
2022/10/31 04:06:35;;;;;;;;;;;11.90;99.90;;;;;;5056354;28;20453;-71
2022/10/31 04:09:03;;;;;;;;;;;11.90;99.90;;;;;;5062042;28;19963;-71
2022/10/31 04:11:31;;;;;;;;;;;12.60;99.90;;;;;;5094180;28;19924;-71
2022/10/31 04:13:57;;;;;;;;;;;11.80;99.90;;;;;;5073624;28;19924;-71
2022/10/31 04:16:24;;;;;;;;;;;11.90;99.90;;;;;;5076647;28;19931;-71
2022/10/31 04:18:50;;;;;;;;;;;11.70;99.90;;;;;;5076158;28;19920;-71
2022/10/31 04:21:16;;;;;;;;;;;11.70;99.90;;;;;;5066806;28;19920;-71
2022/10/31 04:23:42;;;;;;;;;;;11.90;99.90;;;;;;5055978;28;19920;-71
2022/10/31 04:26:10;;;;;;;;;;;11.60;99.90;;;;;;5065696;28;20308;-71
2022/10/31 04:28:35;;;;;;;;;;;11.70;99.90;;;;;;5094225;28;19920;-71
2022/10/31 04:31:01;;;;;;;;;;;11.80;99.90;;;;;;5094226;28;19969;-70
2022/10/31 04:33:26;;;;;;;;;;;12.40;99.90;;;;;;5094267;28;20511;-72
2022/10/31 04:35:52;;;;;;;;;;;11.70;99.90;;;;;;5093161;28;20278;-73
2022/10/31 04:38:17;;;;;;;;;;;11.80;99.90;;;;;;5075773;28;19960;-71
2022/10/31 04:40:44;;;;;;;;;;;11.50;99.90;;;;;;5059227;28;19920;-71
2022/10/31 04:43:10;;;;;;;;;;;11.50;99.90;;;;;;5073566;28;19939;-71
2022/10/31 04:45:35;;;;;;;;;;;11.80;99.90;;;;;;5075373;28;19920;-72
2022/10/31 04:48:01;;;;;;;;;;;11.80;99.90;;;;;;5075991;28;20412;-72
2022/10/31 04:50:26;;;;;;;;;;;11.60;99.90;;;;;;5093789;28;19959;-72
2022/10/31 04:52:51;;;;;;;;;;;11.70;99.90;;;;;;5075914;28;19971;-72
2022/10/31 04:55:17;;;;;;;;;;;11.50;99.90;;;;;;5074672;28;19970;-72
2022/10/31 04:57:43;;;;;;;;;;;11.60;99.90;;;;;;5092182;28;19920;-71
2022/10/31 05:00:10;;;;;;;;;;;11.70;99.90;;;;;;5056394;28;19935;-71
2022/10/31 05:02:42;;;;;;;;;;;11.70;99.90;;;;;;5071835;28;20003;-70
2022/10/31 05:05:07;;;;;;;;;;;11.70;99.90;;;;;;5037866;28;20409;-71
2022/10/31 05:07:33;;;;;;;;;;;11.70;99.90;;;;;;5072791;28;19920;-70
2022/10/31 05:09:58;;;;;;;;;;;11.80;99.90;;;;;;5055360;28;19920;-73
2022/10/31 05:12:24;;;;;;;;;;;11.60;99.90;;;;;;5072020;28;19931;-72
2022/10/31 05:14:49;;;;;;;;;;;12.90;99.90;;;;;;5057405;28;20359;-71
2022/10/31 05:17:15;;;;;;;;;;;11.50;99.90;;;;;;5074660;28;20014;-71
2022/10/31 05:19:40;;;;;;;;;;;11.50;99.90;;;;;;5075142;28;20408;-72
2022/10/31 05:22:05;;;;;;;;;;;11.60;99.90;;;;;;5093096;28;19920;-71
2022/10/31 05:24:31;;;;;;;;;;;11.60;99.90;;;;;;5074040;28;20440;-72
2022/10/31 05:26:56;;;;;;;;;;;11.40;99.90;;;;;;5075074;28;19920;-71
2022/10/31 05:29:22;;;;;;;;;;;11.50;99.90;;;;;;5065046;28;19924;-72
2022/10/31 05:31:47;;;;;;;;;;;11.30;99.90;;;;;;5054697;28;19925;-71
2022/10/31 05:34:13;;;;;;;;;;;11.50;99.90;;;;;;5053864;28;20650;-71
2022/10/31 05:36:38;;;;;;;;;;;12.00;99.90;;;;;;5054600;28;19920;-71
2022/10/31 05:39:04;;;;;;;;;;;11.40;99.90;;;;;;5072665;28;20404;-71
2022/10/31 05:41:29;;;;;;;;;;;11.30;99.90;;;;;;5054475;28;19970;-71
2022/10/31 05:43:55;;;;;;;;;;;11.60;99.90;;;;;;5053832;28;20017;-71
2022/10/31 05:46:20;;;;;;;;;;;11.50;99.90;;;;;;5070595;28;19920;-71
2022/10/31 05:48:46;;;;;;;;;;;11.60;99.90;;;;;;5057825;28;19920;-72
2022/10/31 05:51:12;;;;;;;;;;;11.30;99.90;;;;;;5074353;28;19977;-71
2022/10/31 05:53:37;;;;;;;;;;;11.30;99.90;;;;;;5074772;28;19920;-71
2022/10/31 05:56:03;;;;;;;;;;;11.20;99.90;;;;;;5091769;28;19920;-72
2022/10/31 05:58:28;;;;;;;;;;;11.20;99.90;;;;;;5073993;28;20023;-72
2022/10/31 06:00:54;;;;;;;;;;;11.30;99.90;;;;;;5072287;28;19928;-72
2022/10/31 06:03:19;;;;;;;;;;;11.40;99.90;;;;;;5038058;28;19986;-72
2022/10/31 06:05:45;;;;;;;;;;;11.20;99.90;;;;;;5053439;28;19927;-72
2022/10/31 06:08:10;;;;;;;;;;;11.40;99.90;;;;;;5086637;22;20017;-70
2022/10/31 06:10:36;;;;;;;;;;;11.40;99.90;;;;;;5051783;28;20012;-70
2022/10/31 06:13:01;;;;;;;;;;;11.40;99.90;;;;;;5050984;28;19931;-70
2022/10/31 06:15:27;;;;;;;;;;;11.20;99.90;;;;;;5041776;28;19920;-70
2022/10/31 06:18:03;;;;;;;;;;;11.30;99.90;;;;;;5050915;28;19920;-70
2022/10/31 06:20:29;;;;;;;;;;;11.30;99.90;;;;;;5050736;28;19921;-70
2022/10/31 06:22:54;;;;;;;;;;;11.20;99.90;;;;;;5051880;28;19921;-70
2022/10/31 06:25:20;;;;;;;;;;;11.00;99.90;;;;;;5054283;28;19920;-70
2022/10/31 06:27:45;;;;;;;;;;;11.20;99.90;;;;;;5057208;28;20003;-70
2022/10/31 06:30:11;;;;;;;;;;;11.10;99.90;;;;;;5057142;28;19921;-70
2022/10/31 06:32:36;;;;;;;;;;;11.20;99.90;;;;;;5057673;28;19970;-70
2022/10/31 06:35:02;;;;;;;;;;;11.10;99.90;;;;;;5045811;28;20386;-70
2022/10/31 06:37:27;;;;;;;;;;;10.90;99.90;;;;;;5058315;28;19928;-70
2022/10/31 06:39:53;;;;;;;;;;;11.10;99.90;;;;;;5056592;28;20444;-70
2022/10/31 06:42:18;;;;;;;;;;;11.10;99.90;;;;;;5042981;28;19927;-70
2022/10/31 06:44:44;;;;;;;;;;;10.70;99.90;;;;;;5039375;28;19921;-71
2022/10/31 06:47:09;;;;;;;;;;;11.10;99.90;;;;;;5023714;28;19932;-70
2022/10/31 06:49:35;;;;;;;;;;;;;;;;;;5059261;28;19943;-70
2022/10/31 06:52:01;;;;;;;;;;;10.80;99.90;;;;;;5039695;28;20696;-70
2022/10/31 06:54:27;;;;;;;;;;;11.10;99.90;;;;;;5051866;28;19927;-70
2022/10/31 06:56:52;;;;;;;;;;;11.00;99.90;;;;;;5056982;28;20008;-70
2022/10/31 06:59:18;;;;;;;;;;;11.00;99.90;;;;;;5055126;28;19924;-70
2022/10/31 07:01:43;;;;;;;;;;;10.90;99.90;;;;;;5055466;28;19928;-69
2022/10/31 07:04:09;;;;;;;;;;;11.00;99.90;;;;;;5036215;28;19982;-69
2022/10/31 07:06:35;;;;;;;;;;;11.00;99.90;;;;;;5058196;28;19966;-69
2022/10/31 07:09:00;;;;;;;;;;;10.90;99.90;;;;;;5058239;28;19921;-69
2022/10/31 07:11:26;;;;;;;;;;;11.20;99.90;;;;;;5073465;28;19925;-69
2022/10/31 07:13:51;;;;;;;;;;;11.10;99.90;;;;;;5056982;28;19929;-69
2022/10/31 07:16:17;;;;;;;;;;;11.30;99.90;;;;;;5049407;28;19968;-69
2022/10/31 07:18:42;;;;;;;;;;;11.00;99.90;;;;;;5055673;28;19944;-69
2022/10/31 07:21:08;;;;;;;;;;;11.30;99.90;;;;;;5039934;28;19927;-69
2022/10/31 07:23:33;;;;;;;;;;;11.00;99.90;;;;;;5057996;28;19924;-69
2022/10/31 07:25:59;;;;;;;;;;;11.50;99.90;;;;;;5050270;28;19927;-70
2022/10/31 07:28:25;;;;;;;;;;;11.20;99.90;;;;;;5052442;28;19921;-69
2022/10/31 07:30:55;;;;;;;;;;;11.30;99.90;;;;;;5053249;28;19929;-69
2022/10/31 07:33:21;;;;;;;;;;;11.10;99.90;;;;;;5049681;28;19932;-69
2022/10/31 07:35:46;;;;;;;;;;;11.00;99.90;;;;;;5049305;28;19920;-68
2022/10/31 07:38:13;;;;;;;;;;;11.30;99.90;;;;;;5048221;28;19925;-69
2022/10/31 07:40:38;;;;;;;;;;;11.40;99.90;;;;;;5050110;28;19929;-69
2022/10/31 07:43:04;;;;;;;;;;;11.40;99.90;;;;;;5048853;28;19955;-69
2022/10/31 07:45:30;;;;;;;;;;;11.40;99.90;;;;;;5049879;28;19947;-69
2022/10/31 07:47:55;;;;;;;;;;;11.50;99.90;;;;;;5050257;28;19920;-69
2022/10/31 07:50:25;;;;;;;;;;;11.50;99.90;;;;;;5049876;28;19925;-69
2022/10/31 07:53:02;;;;;;;;;;;11.40;99.90;;;;;;5061032;28;19933;-69
2022/10/31 07:55:28;;;;;;;;;;;11.60;99.90;;;;;;5046069;28;20379;-69
2022/10/31 07:57:57;;;;;;;;;;;11.50;99.90;;;;;;5045028;28;19932;-69
2022/10/31 08:00:23;;;;;;;;;;;11.50;99.90;;;;;;5047775;28;19924;-70
2022/10/31 08:02:55;;;;;;;;;;;11.60;99.90;;;;;;5041117;28;19931;-70
2022/10/31 08:05:21;;;;;;;;;;;11.60;99.90;;;;;;5048509;28;19975;-70
2022/10/31 08:07:46;;;;;;;;;;;11.80;99.90;;;;;;5048310;28;19925;-69
2022/10/31 08:10:12;;;;;;;;;;;11.70;99.90;;;;;;5046002;28;19932;-69
2022/10/31 08:12:38;;;;;;;;;;;12.00;99.90;;;;;;5033644;28;19932;-70
2022/10/31 08:15:04;;;;;;;;;;;11.90;99.90;;;;;;5035140;28;19925;-69
2022/10/31 08:17:29;;;;;;;;;;;12.00;99.90;;;;;;5028563;28;20362;-69
2022/10/31 08:19:55;;;;;;;;;;;11.90;99.90;;;;;;5052087;28;20016;-69
2022/10/31 08:22:20;;;;;;;;;;;11.80;99.90;;;;;;5050341;28;20011;-69
2022/10/31 08:24:46;;;;;;;;;;;12.00;99.90;;;;;;5046660;28;19997;-69
2022/10/31 08:27:11;;;;;;;;;;;12.20;99.90;;;;;;5051653;28;19929;-69
2022/10/31 08:29:37;;;;;;;;;;;12.10;99.90;;;;;;5036352;28;19921;-69
2022/10/31 08:32:02;;;;;;;;;;;11.90;99.90;;;;;;5028433;28;19928;-69
2022/10/31 08:34:28;;;;;;;;;;;12.20;99.90;;;;;;5051572;28;20420;-69
2022/10/31 08:36:53;;;;;;;;;;;12.20;99.90;;;;;;5053166;28;20386;-70
2022/10/31 08:39:18;;;;;;;;;;;12.40;99.90;;;;;;5052017;28;19963;-70
2022/10/31 08:41:44;;;;;;;;;;;12.30;99.90;;;;;;5051997;28;19921;-70
2022/10/31 08:44:10;;;;;;;;;;;12.30;99.90;;;;;;5051646;28;19994;-69
2022/10/31 08:46:35;;;;;;;;;;;12.30;99.90;;;;;;5052143;28;19932;-69
2022/10/31 08:49:01;;;;;;;;;;;12.30;99.90;;;;;;5050227;28;20028;-69
2022/10/31 08:51:26;;;;;;;;;;;12.40;99.90;;;;;;5051466;28;19925;-69
2022/10/31 08:53:52;;;;;;;;;;;12.60;99.90;;;;;;5050904;28;19925;-69
2022/10/31 08:56:17;;;;;;;;;;;12.50;99.90;;;;;;5053070;28;20310;-69
2022/10/31 08:58:43;;;;;;;;;;;12.80;99.90;;;;;;5053072;28;19921;-69
2022/10/31 09:01:08;;;;;;;;;;;12.90;99.90;;;;;;5051065;28;19921;-69
2022/10/31 09:03:34;;;;;;;;;;;13.00;99.90;;;;;;5049701;28;20383;-70
2022/10/31 09:06:00;;;;;;;;;;;12.70;99.90;;;;;;5056003;28;19931;-70
2022/10/31 09:08:26;;;;;;;;;;;12.90;99.90;;;;;;5048161;28;19921;-69
2022/10/31 09:10:51;;;;;;;;;;;12.90;99.90;;;;;;5062229;28;20425;-70
2022/10/31 09:13:20;;;;;;;;;;;12.80;99.90;;;;;;5053711;28;20306;-70
2022/10/31 09:15:47;;;;;;;;;;;13.30;99.90;;;;;;5033330;28;19925;-70
2022/10/31 09:18:13;;;;;;;;;;;13.40;99.90;;;;;;5032536;28;19925;-70
2022/10/31 09:20:39;;;;;;;;;;;13.30;99.90;;;;;;5050318;28;19964;-70
2022/10/31 09:23:06;;;;;;;;;;;13.50;99.90;;;;;;5046166;28;19975;-70
2022/10/31 09:25:33;;;;;;;;;;;13.30;99.90;;;;;;5049091;28;20441;-70
2022/10/31 09:27:59;;;;;;;;;;;13.60;99.90;;;;;;5051714;28;19963;-71
2022/10/31 09:30:25;;;;;;;;;;;13.60;99.90;;;;;;5047528;28;19920;-70
2022/10/31 09:32:55;;;;;;;;;;;14.20;99.90;;;;;;5046267;28;19979;-69
2022/10/31 09:35:20;;;;;;;;;;;13.70;99.90;;;;;;5038800;28;19928;-72
2022/10/31 09:37:46;;;;;;;;;;;13.90;99.90;;;;;;5043541;28;19925;-69
2022/10/31 09:40:11;;;;;;;;;;;13.90;99.90;;;;;;5052273;28;19964;-69
2022/10/31 09:42:52;;;;;;;;;;;13.90;99.90;;;;;;5043580;28;19920;-70
2022/10/31 09:45:22;;;;;;;;;;;13.90;99.90;;;;;;5047158;28;20003;-70
2022/10/31 09:47:51;;;;;;;;;;;13.90;99.90;;;;;;5052093;28;20003;-70
2022/10/31 09:50:26;;;;;;;;;;;13.90;99.90;;;;;;5050496;28;20333;-70
2022/10/31 09:53:01;;;;;;;;;;;14.00;99.90;;;;;;5031812;28;19932;-70
2022/10/31 09:55:34;;;;;;;;;;;13.80;99.90;;;;;;5051839;28;19927;-70
2022/10/31 09:58:00;;;;;;;;;;;13.90;99.90;;;;;;5050573;28;19931;-70
2022/10/31 10:00:26;;;;;;;;;;;13.70;99.90;;;;;;5051564;28;19921;-70
2022/10/31 10:03:14;;;;;;;;;;;13.80;99.90;;;;;;5051964;28;19932;-69
2022/10/31 10:05:43;;;;;;;;;;;13.90;99.90;;;;;;5049022;28;19920;-71
2022/10/31 10:08:11;;;;;;;;;;;14.70;99.90;;;;;;5051571;28;19933;-71
2022/10/31 10:10:55;;;;;;;;;;;14.30;99.90;;;;;;5052000;28;19967;-70
2022/10/31 10:13:39;;;;;;;;;;;14.30;99.90;;;;;;5051823;28;20403;-70
2022/10/31 10:16:17;;;;;;;;;;;14.40;99.90;;;;;;5050380;28;20023;-70
2022/10/31 10:18:47;;;;;;;;;;;14.60;99.90;;;;;;5050049;28;19964;-71
2022/10/31 10:21:31;;;;;;;;;;;14.70;99.90;;;;;;5051281;28;19971;-70
2022/10/31 10:23:57;;;;;;;;;;;14.80;99.90;;;;;;5050858;28;19920;-71
2022/10/31 10:26:28;;;;;;;;;;;14.90;99.90;;;;;;5048493;28;19927;-70
2022/10/31 10:28:58;;;;;;;;;;;15.10;99.90;;;;;;5039709;28;19988;-74
2022/10/31 10:31:27;;;;;;;;;;;15.20;99.90;;;;;;5049683;28;19933;-71
2022/10/31 10:34:12;;;;;;;;;;;15.10;99.90;;;;;;5047827;28;19921;-71
2022/10/31 10:36:44;;;;;;;;;;;15.20;99.90;;;;;;5049889;28;19920;-71
2022/10/31 10:39:22;;;;;;;;;;;14.90;99.90;;;;;;5050943;28;19935;-72
2022/10/31 10:50:06;;;;;;;;;;;15.10;99.90;;;;;;5050239;28;19929;-71
2022/10/31 10:52:37;;;;;;;;;;;15.30;99.90;;;;;;5047248;28;20337;-69
2022/10/31 10:55:11;;;;;;;;;;;15.20;99.90;;;;;;5044204;28;19944;-70
2022/10/31 10:57:43;;;;;;;;;;;15.30;99.90;;;;;;5049584;28;19928;-70
2022/10/31 11:00:17;;;;;;;;;;;15.20;99.90;;;;;;5050810;28;20365;-70
2022/10/31 11:02:42;;;;;;;;;;;14.40;99.90;;;;;;5049837;28;19932;-70
2022/10/31 11:05:13;;;;;;;;;;;15.40;99.90;;;;;;5041914;28;19921;-71
2022/10/31 11:07:39;;;;;;;;;;;15.40;99.90;;;;;;5033083;28;19928;-70
2022/10/31 11:10:12;;;;;;;;;;;15.30;99.90;;;;;;5030964;28;19921;-70
2022/10/31 11:12:38;;;;;;;;;;;15.10;99.90;;;;;;5033098;28;20454;-70
2022/10/31 11:15:16;;;;;;;;;;;15.20;99.90;;;;;;5047704;28;20027;-70
2022/10/31 11:17:42;;;;;;;;;;;14.90;99.90;;;;;;5053659;28;20199;-69
2022/10/31 11:20:13;;;;;;;;;;;15.10;99.90;;;;;;5036687;28;19971;-70
2022/10/31 11:22:42;;;;;;;;;;;15.00;99.90;;;;;;5053396;28;20013;-70
2022/10/31 11:25:26;;;;;;;;;;;15.00;99.90;;;;;;5054251;28;19977;-70
2022/10/31 11:27:59;;;;;;;;;;;14.80;99.90;;;;;;5052929;28;19925;-70
2022/10/31 11:30:25;;;;;;;;;;;14.90;99.90;;;;;;5053249;28;19920;-70
2022/10/31 11:32:52;;;;;;;;;;;15.00;99.90;;;;;;5046701;28;20300;-70
2022/10/31 11:35:18;;;;;;;;;;;15.20;99.90;;;;;;5039539;28;19921;-70
2022/10/31 11:37:44;;;;;;;;;;;15.00;99.90;;;;;;5044915;28;19943;-70
2022/10/31 11:40:17;;;;;;;;;;;15.10;99.90;;;;;;5070872;28;19956;-70
2022/10/31 11:42:43;;;;;;;;;;;15.00;99.90;;;;;;5026436;28;19927;-70
2022/10/31 11:45:27;;;;;;;;;;;14.90;99.90;;;;;;5018525;28;20011;-70
2022/10/31 11:47:54;;;;;;;;;;;15.00;99.90;;;;;;5045154;28;20299;-75
2022/10/31 11:50:49;;;;;;;;;;;14.90;99.90;;;;;;5044667;28;20378;-69
2022/10/31 11:53:20;;;;;;;;;;;15.20;99.90;;;;;;5039880;28;19929;-70
2022/10/31 11:55:46;;;;;;;;;;;15.10;99.90;;;;;;5025206;28;19929;-70
2022/10/31 11:58:12;;;;;;;;;;;;;;;;;;5047802;28;19931;-70
2022/10/31 12:00:38;;;;;;;;;;;15.40;99.90;;;;;;5048657;28;20972;-70
2022/10/31 12:03:27;;;;;;;;;;;15.30;99.90;;;;;;5050060;28;20429;-69
2022/10/31 12:06:03;;;;;;;;;;;15.40;99.90;;;;;;5037895;28;19928;-70
2022/10/31 12:08:34;;;;;;;;;;;15.60;99.90;;;;;;5048229;28;20409;-70
2022/10/31 12:11:12;;;;;;;;;;;15.30;99.90;;;;;;5036358;28;19936;-71
2022/10/31 12:13:45;;;;;;;;;;;15.50;99.90;;;;;;5048209;28;19921;-71
2022/10/31 12:16:18;;;;;;;;;;;16.10;99.90;;;;;;5046642;28;20306;-70
2022/10/31 12:18:57;;;;;;;;;;;15.50;99.90;;;;;;5049250;28;19925;-71
2022/10/31 12:21:34;;;;;;;;;;;15.60;99.90;;;;;;5047429;28;19960;-72
2022/10/31 12:24:05;;;;;;;;;;;15.50;99.90;;;;;;5030081;28;20294;-71
2022/10/31 12:26:36;;;;;;;;;;;15.60;99.90;;;;;;5047254;28;19932;-71
2022/10/31 12:29:18;;;;;;;;;;;15.70;99.90;;;;;;5044749;28;19927;-70
2022/10/31 12:31:55;;;;;;;;;;;15.70;99.90;;;;;;5064562;28;19937;-71
2022/10/31 12:34:29;;;;;;;;;;;15.60;99.90;;;;;;5056695;28;19921;-71
2022/10/31 12:37:13;;;;;;;;;;;15.70;99.90;;;;;;5044512;28;19921;-71
2022/10/31 12:39:51;;;;;;;;;;;15.50;99.90;;;;;;5048747;28;19921;-71
2022/10/31 12:42:35;;;;;;;;;;;15.60;99.90;;;;;;5045124;28;19920;-71
2022/10/31 12:45:07;;;;;;;;;;;15.40;99.90;;;;;;5052476;28;19928;-70
2022/10/31 12:47:51;;;;;;;;;;;15.70;99.90;;;;;;5050289;28;19978;-70
2022/10/31 12:50:36;;;;;;;;;;;15.50;99.90;;;;;;5043123;28;19920;-70
2022/10/31 12:53:04;;;;;;;;;;;15.60;99.90;;;;;;5038866;28;19948;-70
2022/10/31 12:55:35;;;;;;;;;;;15.60;99.90;;;;;;5038893;28;19921;-70
2022/10/31 12:58:03;;;;;;;;;;;15.60;99.90;;;;;;5032658;28;20003;-71
2022/10/31 13:00:31;;;;;;;;;;;16.80;99.90;;;;;;5035949;28;19932;-71
2022/10/31 13:02:59;;;;;;;;;;;15.70;99.90;;;;;;5037682;28;19991;-71
2022/10/31 13:05:29;;;;;;;;;;;16.20;99.90;;;;;;5031079;28;19928;-71
2022/10/31 13:07:58;;;;;;;;;;;15.50;99.90;;;;;;5043563;28;19921;-71
2022/10/31 13:10:23;;;;;;;;;;;15.90;99.90;;;;;;5051979;28;20381;-71
2022/10/31 13:12:51;;;;;;;;;;;15.50;99.90;;;;;;5043602;28;20012;-71
2022/10/31 13:15:25;;;;;;;;;;;15.80;99.90;;;;;;5031635;28;19968;-71
2022/10/31 13:17:53;;;;;;;;;;;15.70;99.90;;;;;;5031642;28;19968;-71
2022/10/31 13:20:24;;;;;;;;;;;15.80;99.90;;;;;;5023089;28;19920;-71
2022/10/31 13:22:52;;;;;;;;;;;15.80;99.90;;;;;;5051339;28;19924;-71
2022/10/31 13:25:28;;;;;;;;;;;16.10;99.90;;;;;;5031751;28;19927;-71
2022/10/31 13:27:59;;;;;;;;;;;16.30;99.90;;;;;;5031010;28;19928;-71
2022/10/31 13:30:30;;;;;;;;;;;16.20;99.90;;;;;;5032766;28;19973;-71
2022/10/31 13:33:22;;;;;;;;;;;16.20;99.90;;;;;;5045118;28;20302;-71
2022/10/31 13:35:53;;;;;;;;;;;16.10;99.90;;;;;;5048212;28;19921;-71
2022/10/31 13:38:31;;;;;;;;;;;16.10;99.90;;;;;;5049257;28;19924;-71
2022/10/31 13:40:58;;;;;;;;;;;16.00;99.90;;;;;;5033019;28;19928;-70
2022/10/31 13:43:43;;;;;;;;;;;16.30;99.90;;;;;;5030655;28;19928;-71
2022/10/31 13:46:22;;;;;;;;;;;16.20;99.90;;;;;;5030257;28;19921;-70
2022/10/31 13:48:48;;;;;;;;;;;16.30;99.90;;;;;;5037260;28;19924;-71
2022/10/31 13:51:23;;;;;;;;;;;16.60;99.90;;;;;;5032547;28;20414;-70
2022/10/31 13:53:53;;;;;;;;;;;16.40;99.90;;;;;;5030542;28;19921;-71
2022/10/31 13:56:23;;;;;;;;;;;16.10;99.90;;;;;;5038869;28;19921;-71
2022/10/31 13:58:54;;;;;;;;;;;16.20;99.90;;;;;;5037216;28;20039;-70
2022/10/31 14:01:21;;;;;;;;;;;16.10;99.90;;;;;;5035239;28;19929;-70
2022/10/31 14:03:55;;;;;;;;;;;16.00;99.90;;;;;;5041480;28;19921;-70
2022/10/31 14:06:22;;;;;;;;;;;16.70;99.90;;;;;;5030769;28;19928;-70
2022/10/31 14:08:49;;;;;;;;;;;15.90;99.90;;;;;;5030613;28;19921;-70
2022/10/31 14:11:22;;;;;;;;;;;15.90;99.90;;;;;;5030507;28;19972;-70
2022/10/31 14:13:47;;;;;;;;;;;15.80;99.90;;;;;;5013654;28;19940;-70
2022/10/31 14:16:24;;;;;;;;;;;16.40;99.90;;;;;;5035472;28;19925;-70
2022/10/31 14:19:00;;;;;;;;;;;16.00;99.90;;;;;;5051360;28;19932;-69
2022/10/31 14:21:30;;;;;;;;;;;15.60;99.90;;;;;;5040474;28;20445;-70
2022/10/31 14:23:57;;;;;;;;;;;15.80;99.90;;;;;;5032526;28;19967;-69
2022/10/31 14:26:26;;;;;;;;;;;16.00;99.90;;;;;;5049910;28;19925;-69
2022/10/31 14:28:52;;;;;;;;;;;15.70;99.90;;;;;;5030199;28;19932;-69
2022/10/31 14:31:37;;;;;;;;;;;15.90;99.90;;;;;;5030002;28;19925;-69
2022/10/31 14:34:18;;;;;;;;;;;15.80;99.90;;;;;;5037057;28;19924;-69
2022/10/31 14:36:59;;;;;;;;;;;15.90;99.90;;;;;;5050730;28;19925;-69
2022/10/31 14:39:24;;;;;;;;;;;15.90;99.90;;;;;;5033315;28;20302;-69